Time;durP1;ratioP1;P1;durP2;ratioP2;P2;SDS_P1;SDS_P2;PMS_P1;PMS_P2;Temp;Humidity;BMP_temperature;BMP_pressure;BME280_temperature;BME280_humidity;BME280_pressure;Samples;Min_cycle;Max_cycle;Signal;HPM_P1;HPM_P2
2022/01/25 00:08:24;;;;;;;65.38;33.63;;;;;;;2.78;100.00;102763.31;4976230;28;20054;-73
2022/01/25 00:33:31;;;;;;;61.72;29.83;;;;;;;2.97;100.00;102759.38;4975773;28;20051;-73
2022/01/25 00:36:01;;;;;;;60.15;30.17;;;;;;;2.95;100.00;102751.41;4973727;28;20047;-73
2022/01/25 00:38:29;;;;;;;55.78;28.58;;;;;;;2.90;100.00;102763.78;4956543;29;20486;-73
2022/01/25 00:40:57;;;;;;;61.58;29.30;;;;;;;2.88;100.00;102755.03;4968436;28;20047;-73
2022/01/25 00:43:27;;;;;;;65.63;29.55;;;;;;;2.85;100.00;102756.22;4975465;28;20050;-73
2022/01/25 00:45:59;;;;;;;55.15;27.65;;;;;;;2.85;100.00;102745.38;4971923;28;20049;-73
2022/01/25 00:48:49;;;;;;;64.35;29.88;;;;;;;2.91;100.00;102754.66;4975330;28;20038;-73
2022/01/25 00:52:19;;;;;;;58.53;27.55;;;;;;;2.86;100.00;102751.63;4969136;28;20051;-73
2022/01/25 00:56:51;;;;;;;64.63;30.15;;;;;;;2.83;100.00;102755.53;4965924;28;20042;-73
2022/01/25 00:59:30;;;;;;;54.03;28.15;;;;;;;2.87;100.00;102747.91;4967923;28;20063;-72
2022/01/25 01:02:02;;;;;;;57.60;27.58;;;;;;;2.89;100.00;102751.28;4962351;28;20487;-73
2022/01/25 01:04:32;;;;;;;62.60;29.02;;;;;;;2.86;100.00;102765.16;4942829;28;20054;-73
2022/01/25 01:07:06;;;;;;;65.93;28.52;;;;;;;2.87;100.00;102759.56;4966047;28;20056;-73
2022/01/25 01:09:37;;;;;;;63.67;29.30;;;;;;;2.91;100.00;102760.06;4955609;28;20409;-73
2022/01/25 01:12:13;;;;;;;64.07;27.50;;;;;;;2.91;100.00;102747.41;4975142;28;20046;-73
2022/01/25 01:45:04;;;;;;;54.35;27.13;;;;;;;2.77;100.00;102758.91;4963363;28;20039;-73
2022/01/25 01:47:41;;;;;;;53.45;25.55;;;;;;;2.92;100.00;102759.91;4974347;28;20050;-73
2022/01/25 01:50:14;;;;;;;55.75;27.33;;;;;;;3.02;100.00;102756.13;4973579;28;20061;-73
2022/01/25 01:52:42;;;;;;;54.88;27.63;;;;;;;3.02;100.00;102753.41;4972888;28;20062;-73
2022/01/25 01:55:10;;;;;;;53.85;26.83;;;;;;;3.05;100.00;102756.66;4970262;28;20042;-73
2022/01/25 01:57:39;;;;;;;58.28;27.67;;;;;;;3.09;100.00;102752.53;4974306;28;20062;-73
2022/01/25 02:00:08;;;;;;;61.20;30.25;;;;;;;3.11;100.00;102752.38;4950743;28;20055;-73
2022/01/25 02:02:39;;;;;;;61.20;31.05;;;;;;;3.07;100.00;102748.31;4961599;28;20035;-72
2022/01/25 02:05:08;;;;;;;62.72;30.65;;;;;;;3.03;100.00;102745.13;4962070;28;20059;-73
2022/01/25 02:07:36;;;;;;;64.88;31.48;;;;;;;2.99;100.00;102748.38;4971727;28;20041;-73
2022/01/25 02:10:06;;;;;;;59.28;29.70;;;;;;;2.91;100.00;102744.69;4972832;28;20054;-73
2022/01/25 02:12:34;;;;;;;64.55;31.92;;;;;;;2.96;100.00;102741.44;4973856;28;20054;-73
2022/01/25 02:15:06;;;;;;;63.95;30.95;;;;;;;2.99;100.00;102751.09;4974057;28;20043;-73
2022/01/25 02:17:57;;;;;;;61.88;30.55;;;;;;;2.97;100.00;102739.59;4973798;28;20696;-73
2022/01/25 02:23:18;;;;;;;56.63;30.52;;;;;;;2.87;100.00;102731.66;4960317;28;20406;-72
2022/01/25 02:25:47;;;;;;;66.35;29.92;;;;;;;2.91;100.00;102738.44;4973982;28;20054;-72
2022/01/25 02:28:15;;;;;;;57.25;29.13;;;;;;;2.89;100.00;102722.38;4973640;28;20038;-73
2022/01/25 02:30:44;;;;;;;57.90;29.30;;;;;;;2.84;100.00;102727.47;4973760;28;20051;-73
2022/01/25 02:33:13;;;;;;;61.30;30.65;;;;;;;2.90;100.00;102726.78;4973292;28;20047;-72
2022/01/25 02:35:41;;;;;;;66.50;31.48;;;;;;;2.90;100.00;102724.06;4969047;28;20050;-73
2022/01/25 02:38:09;;;;;;;62.10;29.92;;;;;;;2.84;100.00;102707.69;4973427;28;20061;-73
2022/01/25 02:40:37;;;;;;;57.83;29.13;;;;;;;2.82;100.00;102715.97;4973255;28;20050;-73
2022/01/25 02:43:05;;;;;;;62.97;31.75;;;;;;;2.82;100.00;102718.69;4973338;28;20043;-73
2022/01/25 02:45:35;;;;;;;64.00;29.95;;;;;;;2.87;100.00;102716.28;4965580;28;20509;-72
2022/01/25 02:50:50;;;;;;;58.33;29.08;;;;;;;2.95;100.00;102713.53;4963463;28;20409;-73
2022/01/25 02:53:18;;;;;;;61.75;30.42;;;;;;;2.98;100.00;102711.53;4973117;28;20055;-73
2022/01/25 02:55:46;;;;;;;64.30;30.58;;;;;;;3.03;100.00;102717.25;4973443;28;20113;-73
2022/01/25 02:58:14;;;;;;;59.28;30.15;;;;;;;3.02;100.00;102710.13;4973265;28;20054;-73
2022/01/25 03:00:42;;;;;;;62.55;30.70;;;;;;;3.02;100.00;102712.84;4973315;28;20077;-73
2022/01/25 03:03:10;;;;;;;59.03;31.35;;;;;;;3.00;100.00;102707.63;4963835;28;20516;-73
2022/01/25 03:05:38;;;;;;;60.38;30.70;;;;;;;3.02;100.00;102707.44;4973119;28;20066;-73
2022/01/25 03:08:11;;;;;;;61.50;30.92;;;;;;;3.01;100.00;102703.91;4973335;28;20049;-73
2022/01/25 03:10:41;;;;;;;62.00;32.15;;;;;;;2.98;100.00;102706.13;4973120;28;20061;-73
2022/01/25 03:13:13;;;;;;;59.05;29.70;;;;;;;2.93;100.00;102712.88;4973147;28;20058;-72
2022/01/25 03:15:56;;;;;;;58.75;31.50;;;;;;;2.92;100.00;102705.81;4966366;28;20398;-73
2022/01/25 03:21:33;;;;;;;61.78;31.40;;;;;;;2.90;100.00;102707.84;4973192;28;20059;-73
2022/01/25 03:23:49;;;;;;;64.38;32.58;;;;;;;2.92;100.00;102708.50;4969681;28;20043;-73
2022/01/25 03:26:19;;;;;;;67.63;33.90;;;;;;;2.88;100.00;102704.47;4968828;28;20050;-73
2022/01/25 03:28:47;;;;;;;63.53;32.33;;;;;;;2.92;100.00;102708.50;4973211;28;20039;-73
2022/01/25 03:31:15;;;;;;;65.85;31.60;;;;;;;2.93;100.00;102704.78;4963967;28;20042;-72
2022/01/25 03:33:44;;;;;;;66.72;32.35;;;;;;;2.94;100.00;102703.75;4973103;28;20054;-72
2022/01/25 03:36:13;;;;;;;63.42;32.00;;;;;;;2.91;100.00;102701.41;4972958;28;20047;-73
2022/01/25 03:38:42;;;;;;;68.80;34.13;;;;;;;2.94;100.00;102706.47;4972999;28;20516;-73
2022/01/25 03:41:12;;;;;;;68.70;34.38;;;;;;;2.89;100.00;102708.84;4973030;28;20046;-73
2022/01/25 03:43:41;;;;;;;66.90;33.72;;;;;;;2.87;100.00;102702.78;4972180;28;20042;-73
2022/01/25 03:46:21;;;;;;;65.47;32.03;;;;;;;2.95;100.00;102704.59;4973093;28;20413;-73
2022/01/25 03:51:36;;;;;;;67.07;32.47;;;;;;;2.89;100.00;102698.03;4972881;28;20051;-73
2022/01/25 03:54:05;;;;;;;59.75;30.50;;;;;;;2.95;100.00;102701.91;4976297;28;20409;-73
2022/01/25 03:56:33;;;;;;;62.17;32.90;;;;;;;2.94;100.00;102698.34;4970415;28;20509;-73
2022/01/25 03:59:01;;;;;;;66.53;33.13;;;;;;;2.89;100.00;102689.91;4976415;28;20046;-73
2022/01/25 04:01:30;;;;;;;63.10;32.20;;;;;;;2.85;100.00;102693.16;4976210;28;20042;-73
2022/01/25 04:04:01;;;;;;;70.57;33.65;;;;;;;2.88;100.00;102698.22;4976199;28;20047;-73
2022/01/25 04:06:32;;;;;;;64.18;32.67;;;;;;;2.87;100.00;102691.09;4970582;28;20496;-73
2022/01/25 04:09:04;;;;;;;69.22;32.72;;;;;;;2.85;100.00;102694.00;4976293;28;20069;-73
2022/01/25 04:11:32;;;;;;;64.85;32.08;;;;;;;2.81;100.00;102698.94;4969986;28;20047;-73
2022/01/25 04:14:01;;;;;;;70.00;32.03;;;;;;;2.73;100.00;102690.00;4968836;28;20386;-72
2022/01/25 04:16:35;;;;;;;60.00;32.38;;;;;;;2.71;100.00;102690.16;4976126;28;20055;-72
2022/01/25 04:19:11;;;;;;;63.75;33.22;;;;;;;2.72;100.00;102691.84;4976146;28;20061;-73
2022/01/25 04:26:57;;;;;;;66.57;32.08;;;;;;;2.65;100.00;102686.28;4962975;28;20043;-73
2022/01/25 04:29:26;;;;;;;68.05;32.70;;;;;;;2.64;100.00;102684.59;4975705;28;20054;-73
2022/01/25 04:31:54;;;;;;;63.17;34.80;;;;;;;2.64;100.00;102687.31;4975905;28;20043;-72
2022/01/25 04:55:53;;;;;;;70.00;35.13;;;;;;;2.84;100.00;102665.28;4975566;28;20038;-72
2022/01/25 04:58:29;;;;;;;60.35;31.63;;;;;;;2.76;100.00;102670.72;4975324;28;20073;-73
2022/01/25 05:00:58;;;;;;;68.38;33.90;;;;;;;2.65;100.00;102664.66;4975234;28;20050;-73
2022/01/25 05:03:36;;;;;;;69.65;34.78;;;;;;;2.72;100.00;102672.06;4974904;28;20046;-72
2022/01/25 05:06:11;;;;;;;58.08;31.85;;;;;;;2.77;100.00;102669.69;4956112;28;20047;-72
2022/01/25 05:08:44;;;;;;;62.15;31.98;;;;;;;2.71;100.00;102665.84;4942737;29;20051;-72
2022/01/25 05:11:33;;;;;;;60.67;33.53;;;;;;;2.61;100.00;102655.22;4954507;29;20150;-72
2022/01/25 05:16:37;;;;;;;59.88;32.28;;;;;;;2.72;100.00;102658.53;4955587;29;20048;-72
2022/01/25 05:24:40;;;;;;;64.80;32.70;;;;;;;2.57;100.00;102647.63;4948494;29;20047;-73
2022/01/25 05:27:11;;;;;;;68.53;34.47;;;;;;;2.51;100.00;102647.34;4951677;29;20035;-72
2022/01/25 05:29:40;;;;;;;64.97;31.95;;;;;;;2.53;100.00;102644.44;4952999;29;20573;-73
2022/01/25 05:32:08;;;;;;;59.15;32.60;;;;;;;2.42;100.00;102651.94;4950649;29;20047;-72
2022/01/25 05:34:36;;;;;;;64.10;31.88;;;;;;;2.42;100.00;102640.25;4945797;29;20070;-73
2022/01/25 05:37:06;;;;;;;60.83;31.95;;;;;;;2.46;100.00;102638.91;4955044;29;20078;-73
2022/01/25 05:39:37;;;;;;;64.68;33.70;;;;;;;2.50;100.00;102634.00;4954593;29;20051;-72
2022/01/25 05:47:26;;;;;;;60.38;30.52;;;;;;;2.50;100.00;102628.59;4938724;29;20048;-72
2022/01/25 05:49:55;;;;;;;64.93;33.17;;;;;;;2.66;100.00;102631.22;4947766;29;20039;-72
2022/01/25 05:52:23;;;;;;;63.97;33.65;;;;;;;2.63;100.00;102633.41;4937123;29;20054;-73
2022/01/25 05:54:52;;;;;;;65.47;33.40;;;;;;;2.62;100.00;102635.28;4954326;29;20047;-72
2022/01/25 05:57:20;;;;;;;57.47;31.05;;;;;;;2.61;100.00;102630.91;4954811;29;20047;-73
2022/01/25 05:59:48;;;;;;;64.63;31.33;;;;;;;2.54;100.00;102624.53;4955104;29;20047;-72
2022/01/25 06:02:19;;;;;;;57.72;30.80;;;;;;;2.55;100.00;102620.78;4957280;28;20069;-72
2022/01/25 06:04:47;;;;;;;65.55;33.45;;;;;;;2.54;100.00;102629.94;4946176;28;20524;-72
2022/01/25 06:07:15;;;;;;;66.78;32.30;;;;;;;2.49;100.00;102626.91;4954346;29;20044;-72
2022/01/25 06:09:43;;;;;;;62.58;32.97;;;;;;;2.55;100.00;102631.59;4955800;28;20050;-72
2022/01/25 06:12:11;;;;;;;63.90;32.20;;;;;;;2.60;100.00;102628.38;4973407;28;20054;-72
2022/01/25 06:14:39;;;;;;;65.82;32.75;;;;;;;2.58;100.00;102625.84;4972781;28;20038;-72
2022/01/25 06:17:07;;;;;;;68.32;35.13;;;;;;;2.58;100.00;102630.41;4973284;28;20047;-72
2022/01/25 06:19:35;;;;;;;65.00;35.25;;;;;;;2.56;100.00;102625.19;4968112;28;20601;-71
2022/01/25 06:22:04;;;;;;;61.83;31.40;;;;;;;2.63;100.00;102628.00;4959501;28;20163;-78
2022/01/25 06:24:33;;;;;;;66.97;32.97;;;;;;;2.62;100.00;102627.19;4943401;28;20051;-71
2022/01/25 06:27:01;;;;;;;62.65;33.97;;;;;;;2.58;100.00;102616.91;4951242;28;20526;-71
2022/01/25 06:29:29;;;;;;;60.15;31.65;;;;;;;2.57;100.00;102634.97;4963758;28;20047;-72
2022/01/25 06:31:58;;;;;;;60.63;31.60;;;;;;;2.57;100.00;102626.00;4953042;28;20066;-72
2022/01/25 06:34:26;;;;;;;63.35;32.83;;;;;;;2.51;100.00;102623.00;4946790;28;20064;-71
2022/01/25 06:36:54;;;;;;;63.08;33.67;;;;;;;2.56;100.00;102633.28;4969801;28;20069;-71
2022/01/25 06:39:22;;;;;;;70.90;32.13;;;;;;;2.56;100.00;102627.88;4965901;28;20058;-72
2022/01/25 06:41:51;;;;;;;60.55;30.77;;;;;;;2.55;100.00;102627.03;4952315;28;20062;-72
2022/01/25 06:44:19;;;;;;;63.50;34.40;;;;;;;2.63;100.00;102623.44;4943323;29;20513;-72
2022/01/25 06:46:47;;;;;;;68.55;33.45;;;;;;;2.66;100.00;102633.06;4935719;29;20054;-72
2022/01/25 06:49:16;;;;;;;63.47;34.50;;;;;;;2.69;100.00;102625.44;4943430;29;20059;-71
2022/01/25 06:52:04;;;;;;;64.65;33.38;;;;;;;2.71;100.00;102624.44;4941114;29;20063;-71
2022/01/25 06:54:33;;;;;;;63.92;32.15;;;;;;;2.67;100.00;102624.78;4939444;29;20406;-71
2022/01/25 06:57:01;;;;;;;69.00;34.50;;;;;;;2.73;100.00;102631.34;4939922;29;20036;-71
2022/01/25 06:59:29;;;;;;;65.43;33.08;;;;;;;2.76;100.00;102628.31;4945173;28;20047;-71
2022/01/25 07:01:57;;;;;;;68.72;33.10;;;;;;;2.92;100.00;102629.22;4947996;28;20047;-71
2022/01/25 07:04:25;;;;;;;65.03;32.88;;;;;;;2.90;100.00;102623.16;4939713;29;20051;-71
2022/01/25 07:06:53;;;;;;;70.05;34.22;;;;;;;2.95;100.00;102628.88;4939267;29;20075;-71
2022/01/25 07:09:21;;;;;;;73.40;33.60;;;;;;;2.87;100.00;102620.78;4950534;28;20062;-71
2022/01/25 07:11:49;;;;;;;68.50;34.13;;;;;;;2.82;100.00;102622.19;4938480;29;20051;-71
2022/01/25 07:14:17;;;;;;;66.47;32.83;;;;;;;2.84;100.00;102624.72;4949264;29;20051;-70
2022/01/25 07:16:46;;;;;;;65.22;33.45;;;;;;;2.90;100.00;102621.31;4937230;28;20051;-71
2022/01/25 07:19:14;;;;;;;66.57;32.80;;;;;;;2.88;100.00;102623.31;4935661;29;20035;-70
2022/01/25 07:21:42;;;;;;;69.30;32.42;;;;;;;2.89;100.00;102625.00;4940446;29;20048;-70
2022/01/25 07:24:10;;;;;;;62.72;31.48;;;;;;;2.88;100.00;102619.78;4951558;29;20509;-71
2022/01/25 07:26:38;;;;;;;75.97;35.15;;;;;;;2.84;100.00;102618.44;4945359;28;20047;-71
2022/01/25 07:29:06;;;;;;;130.32;60.33;;;;;;;2.88;100.00;102620.63;4947849;29;20047;-71
2022/01/25 07:31:35;;;;;;;94.97;42.75;;;;;;;3.02;100.00;102627.13;4944062;28;20051;-72
2022/01/25 07:34:09;;;;;;;140.23;56.97;;;;;;;3.07;100.00;102621.19;4934943;29;20376;-72
2022/01/25 07:36:42;;;;;;;184.05;76.45;;;;;;;3.09;100.00;102621.84;4949870;29;20422;-72
2022/01/25 07:39:13;;;;;;;126.63;63.60;;;;;;;3.07;100.00;102624.75;4937152;29;20117;-71
2022/01/25 07:41:47;;;;;;;97.15;50.08;;;;;;;3.09;100.00;102627.28;4950551;28;20059;-71
2022/01/25 07:44:30;;;;;;;76.22;37.28;;;;;;;3.14;100.00;102622.16;4941505;29;20063;-72
2022/01/25 07:47:01;;;;;;;79.88;39.60;;;;;;;3.16;100.00;102611.16;4939990;28;20058;-72
2022/01/25 07:49:30;;;;;;;71.18;35.50;;;;;;;3.19;100.00;102617.03;4939815;29;20052;-73
2022/01/25 07:52:03;;;;;;;84.63;37.42;;;;;;;3.21;100.00;102614.16;4944210;29;20063;-73
2022/01/25 07:54:32;;;;;;;70.35;33.42;;;;;;;3.24;100.00;102619.22;4945961;29;20056;-73
2022/01/25 07:57:02;;;;;;;70.30;35.47;;;;;;;3.42;100.00;102615.38;4939533;29;20051;-80
2022/01/25 07:59:30;;;;;;;76.15;34.63;;;;;;;3.54;100.00;102603.09;4906427;29;20487;-75
2022/01/25 08:01:58;;;;;;;78.25;33.75;;;;;;;3.63;100.00;102595.72;4952065;28;20054;-74
2022/01/25 08:04:27;;;;;;;68.05;33.28;;;;;;;3.55;100.00;102609.31;4932752;29;20055;-73
2022/01/25 08:06:55;;;;;;;72.68;34.92;;;;;;;3.56;100.00;102597.50;4936982;29;20063;-75
2022/01/25 08:09:31;;;;;;;80.10;34.58;;;;;;;3.60;100.00;102612.31;4944604;29;20052;-72
2022/01/25 08:11:59;;;;;;;78.22;35.80;;;;;;;3.48;100.00;102609.22;4935891;29;20044;-74
2022/01/25 08:14:32;;;;;;;72.25;34.75;;;;;;;3.41;100.00;102606.41;4940772;29;20051;-74
2022/01/25 08:17:06;;;;;;;79.07;37.13;;;;;;;3.47;100.00;102602.97;4936931;29;20059;-72
2022/01/25 08:19:34;;;;;;;77.68;33.85;;;;;;;3.43;100.00;102608.94;4940216;29;20055;-74
2022/01/25 08:22:06;;;;;;;75.38;33.85;;;;;;;3.47;100.00;102613.78;4937001;29;20059;-73
2022/01/25 08:24:35;;;;;;;75.57;34.33;;;;;;;3.49;100.00;102611.72;4937145;29;20051;-74
2022/01/25 08:27:08;;;;;;;81.20;35.58;;;;;;;3.57;100.00;102612.72;4940923;29;20052;-74
2022/01/25 08:29:37;;;;;;;70.25;34.10;;;;;;;3.45;100.00;102606.88;4951830;29;20058;-74
2022/01/25 08:32:25;;;;;;;82.10;34.05;;;;;;;3.53;100.00;102611.38;4942304;29;20052;-74
2022/01/25 08:34:53;;;;;;;75.93;35.92;;;;;;;3.59;100.00;102610.66;4939578;29;20047;-74
2022/01/25 08:37:26;;;;;;;73.05;34.08;;;;;;;3.56;100.00;102613.75;4943209;29;20036;-73
2022/01/25 08:39:57;;;;;;;76.53;34.78;;;;;;;3.53;100.00;102614.09;4937171;29;20043;-72
2022/01/25 08:42:38;;;;;;;75.20;34.25;;;;;;;3.56;100.00;102605.63;4936375;29;20047;-72
2022/01/25 08:45:10;;;;;;;68.88;34.47;;;;;;;3.62;100.00;102613.00;4936202;29;20055;-72
2022/01/25 08:47:40;;;;;;;77.32;35.30;;;;;;;3.54;100.00;102608.50;4936496;29;20055;-72
2022/01/25 08:50:25;;;;;;;76.70;35.47;;;;;;;3.71;100.00;102606.47;4943365;29;20390;-71
2022/01/25 08:52:54;;;;;;;68.68;32.95;;;;;;;3.77;100.00;102607.63;4937073;29;20051;-71
2022/01/25 08:55:30;;;;;;;73.32;34.80;;;;;;;3.93;100.00;102608.47;4948553;29;20063;-72
2022/01/25 08:57:59;;;;;;;77.65;36.00;;;;;;;4.13;100.00;102606.91;4936453;29;20054;-71
2022/01/25 09:00:29;;;;;;;81.78;37.50;;;;;;;4.05;100.00;102606.16;4938918;28;20047;-72
2022/01/25 09:02:59;;;;;;;77.25;34.03;;;;;;;4.01;100.00;102587.56;4937552;28;20044;-72
2022/01/25 09:05:28;;;;;;;75.78;36.63;;;;;;;4.21;100.00;102589.69;4944517;29;20043;-72
2022/01/25 09:07:57;;;;;;;76.82;35.78;;;;;;;4.22;100.00;102591.41;4948819;29;20047;-73
2022/01/25 09:10:26;;;;;;;80.78;35.17;;;;;;;4.19;100.00;102588.22;4937023;29;20047;-72
2022/01/25 09:12:54;;;;;;;73.05;34.97;;;;;;;4.16;99.94;102589.44;4936779;29;20407;-72
2022/01/25 09:15:23;;;;;;;79.75;35.72;;;;;;;4.37;99.25;102591.38;4943941;29;20040;-74
2022/01/25 09:17:51;;;;;;;76.03;35.85;;;;;;;4.42;99.35;102607.09;4939822;29;20043;-72
2022/01/25 09:20:20;;;;;;;70.70;34.08;;;;;;;4.50;98.28;102606.97;4945745;29;20559;-73
2022/01/25 09:22:48;;;;;;;70.72;36.05;;;;;;;4.56;96.50;102600.78;4953244;29;20043;-73
2022/01/25 09:25:31;;;;;;;75.78;36.30;;;;;;;4.47;98.14;102599.22;4943699;29;20031;-72
2022/01/25 09:28:00;;;;;;;78.53;34.22;;;;;;;4.47;96.88;102596.53;4949284;28;20031;-73
2022/01/25 09:30:29;;;;;;;75.72;36.78;;;;;;;4.49;97.72;102599.88;4935593;29;20406;-72
2022/01/25 09:32:57;;;;;;;75.97;35.13;;;;;;;4.54;97.77;102602.00;4941111;29;20039;-73
2022/01/25 09:35:26;;;;;;;73.47;34.45;;;;;;;4.77;97.52;102596.47;4946444;29;20074;-73
2022/01/25 09:37:54;;;;;;;73.53;35.47;;;;;;;4.90;95.15;102592.22;4934923;29;20048;-74
2022/01/25 09:40:22;;;;;;;77.03;34.35;;;;;;;4.82;95.83;102594.03;4934702;29;20035;-73
2022/01/25 09:42:54;;;;;;;80.82;37.13;;;;;;;4.78;95.90;102595.44;4936975;29;20063;-73
2022/01/25 09:45:23;;;;;;;71.97;34.80;;;;;;;4.78;94.71;102591.84;4938123;29;20051;-73
2022/01/25 09:47:51;;;;;;;66.50;34.60;;;;;;;5.00;93.92;102589.19;4934651;29;20058;-73
2022/01/25 09:50:21;;;;;;;73.38;35.55;;;;;;;5.18;93.48;102596.91;4949002;28;20051;-72
2022/01/25 09:52:50;;;;;;;76.35;35.50;;;;;;;4.96;93.98;102595.00;4942768;29;20051;-73
2022/01/25 09:55:22;;;;;;;75.15;35.38;;;;;;;5.01;93.41;102596.28;4945387;29;20047;-72
2022/01/25 09:57:50;;;;;;;70.63;34.60;;;;;;;4.67;94.96;102596.78;4942054;29;20040;-72
2022/01/25 10:00:20;;;;;;;74.50;35.72;;;;;;;4.90;94.78;102601.22;4936085;29;20043;-73
2022/01/25 10:02:55;;;;;;;71.45;33.97;;;;;;;4.96;94.37;102586.88;4947269;29;20047;-75
2022/01/25 10:05:36;;;;;;;81.63;35.78;;;;;;;5.25;93.33;102586.94;4938378;28;20052;-72
2022/01/25 10:08:15;;;;;;;74.03;34.90;;;;;;;5.43;91.15;102582.91;4947129;29;20075;-72
2022/01/25 10:10:49;;;;;;;80.07;36.47;;;;;;;5.11;92.23;102581.38;4939682;29;20043;-72
2022/01/25 10:13:23;;;;;;;75.93;34.35;;;;;;;5.44;91.73;102576.44;4926900;29;20055;-72
2022/01/25 10:16:04;;;;;;;80.28;36.17;;;;;;;5.62;92.60;102571.38;4935419;29;20040;-72
2022/01/25 10:18:37;;;;;;;74.47;34.53;;;;;;;5.63;90.96;102564.88;4938898;29;20060;-73
2022/01/25 10:21:11;;;;;;;78.90;35.97;;;;;;;5.25;92.44;102557.91;4938055;29;20145;-73
2022/01/25 10:23:41;;;;;;;75.68;36.10;;;;;;;5.61;91.75;102569.69;4935275;29;20056;-73
2022/01/25 10:26:09;;;;;;;80.75;36.28;;;;;;;5.83;89.63;102561.50;4939074;29;20044;-74
2022/01/25 10:28:58;;;;;;;74.88;37.20;;;;;;;5.91;90.11;102546.88;4939955;29;20054;-72
2022/01/25 10:31:37;;;;;;;75.35;34.33;;;;;;;6.19;89.19;102556.91;4942362;29;20498;-73
2022/01/25 10:34:12;;;;;;;70.70;33.00;;;;;;;6.13;88.16;102544.97;4942454;29;20059;-73
2022/01/25 10:36:45;;;;;;;70.60;35.08;;;;;;;6.11;88.63;102541.59;4936499;29;20063;-73
2022/01/25 10:39:19;;;;;;;73.38;33.70;;;;;;;5.54;90.65;102549.78;4934468;29;20407;-73
2022/01/25 10:41:48;;;;;;;70.00;36.53;;;;;;;5.85;90.95;102534.94;4934781;29;20050;-73
2022/01/25 10:44:17;;;;;;;77.97;34.83;;;;;;;5.96;90.37;102532.72;4933269;29;20052;-72
2022/01/25 10:46:47;;;;;;;71.82;35.53;;;;;;;6.14;88.76;102532.19;4935781;29;20043;-72
2022/01/25 10:49:18;;;;;;;68.40;32.97;;;;;;;6.27;87.95;102526.00;4934863;29;20052;-73
2022/01/25 10:51:48;;;;;;;70.10;33.47;;;;;;;6.15;89.21;102526.56;4938154;29;20053;-72
2022/01/25 10:54:24;;;;;;;72.47;34.13;;;;;;;6.69;87.08;102520.47;4944148;29;20044;-72
2022/01/25 10:56:59;;;;;;;67.38;35.70;;;;;;;6.70;86.55;102511.28;4934522;29;20055;-72
2022/01/25 10:59:32;;;;;;;69.07;33.75;;;;;;;6.39;87.28;102509.91;4940375;29;20052;-71
2022/01/25 11:02:04;;;;;;;69.03;34.50;;;;;;;6.45;86.63;102509.09;4935324;28;20426;-71
2022/01/25 11:04:39;;;;;;;72.20;33.92;;;;;;;6.34;87.89;102507.00;4945610;29;20495;-71
2022/01/25 11:07:11;;;;;;;79.43;36.20;;;;;;;6.18;89.86;102506.31;4933583;29;20059;-71
2022/01/25 11:09:45;;;;;;;70.25;34.38;;;;;;;6.59;88.09;102504.53;4943348;29;20062;-71
2022/01/25 11:12:17;;;;;;;76.03;35.72;;;;;;;7.09;85.81;102500.66;4932305;29;20059;-72
2022/01/25 11:14:57;;;;;;;72.38;35.67;;;;;;;7.36;84.17;102492.47;4945478;29;20507;-72
2022/01/25 11:17:27;;;;;;;74.38;34.67;;;;;;;7.57;82.83;102487.84;4938026;29;20056;-72
2022/01/25 11:19:57;;;;;;;76.65;36.40;;;;;;;7.35;82.71;102490.78;4934378;29;20514;-72
2022/01/25 11:22:26;;;;;;;73.32;35.58;;;;;;;7.39;82.56;102481.16;4927825;29;20043;-72
2022/01/25 11:25:06;;;;;;;75.18;35.58;;;;;;;7.21;83.54;102479.06;4941977;28;20055;-72
2022/01/25 11:27:39;;;;;;;78.32;36.20;;;;;;;7.18;83.55;102474.06;4927704;29;20048;-72
2022/01/25 11:30:13;;;;;;;67.35;34.50;;;;;;;7.29;83.69;102465.25;4935014;29;20059;-72
2022/01/25 11:32:43;;;;;;;;;;;;;;;7.37;81.58;102464.16;4942389;29;20055;-73
2022/01/25 11:35:13;;;;;;;77.20;35.38;;;;;;;7.28;82.89;102458.09;4952080;29;20330;-72
2022/01/25 11:37:46;;;;;;;76.70;36.05;;;;;;;7.48;82.55;102449.91;4942189;29;20051;-73
2022/01/25 11:40:37;;;;;;;82.97;37.50;;;;;;;7.19;83.33;102459.38;4937125;29;20052;-73
2022/01/25 11:43:08;;;;;;;79.68;35.55;;;;;;;6.92;85.22;102457.50;4940720;29;20306;-72
2022/01/25 11:45:39;;;;;;;77.60;37.17;;;;;;;7.28;83.70;102449.94;4935133;29;20503;-79
2022/01/25 11:48:08;;;;;;;68.10;32.58;;;;;;;7.18;82.79;102444.91;4912181;29;20079;-79
2022/01/25 11:50:42;;;;;;;76.95;35.28;;;;;;;7.07;83.68;102443.69;4918260;29;20048;-79
2022/01/25 11:53:16;;;;;;;82.57;38.22;;;;;;;6.97;85.20;102441.38;4926410;29;20055;-78
2022/01/25 11:55:48;;;;;;;77.32;35.80;;;;;;;6.95;85.59;102432.56;4916506;29;20039;-79
2022/01/25 11:58:21;;;;;;;72.82;33.67;;;;;;;6.83;85.38;102435.09;4926509;29;20073;-78
2022/01/25 12:00:56;;;;;;;85.05;36.97;;;;;;;6.81;85.93;102420.03;4917315;28;20050;-79
2022/01/25 12:03:45;;;;;;;77.95;34.55;;;;;;;6.83;85.51;102423.38;4921265;29;20043;-79
2022/01/25 12:06:22;;;;;;;71.78;34.05;;;;;;;6.86;85.67;102414.78;4932005;29;20052;-79
2022/01/25 12:11:49;;;;;;;73.43;34.00;;;;;;;6.77;85.27;102416.03;4925337;29;20403;-79
2022/01/25 12:14:26;;;;;;;75.00;32.97;;;;;;;6.85;84.78;102410.41;4931456;29;20055;-78
2022/01/25 12:17:10;;;;;;;74.65;32.45;;;;;;;6.84;85.17;102393.22;4912877;29;20055;-80
2022/01/25 12:19:46;;;;;;;75.57;34.10;;;;;;;6.87;85.13;102389.25;4897136;29;20059;-79
2022/01/25 12:22:35;;;;;;;76.40;35.90;;;;;;;6.88;85.45;102390.91;4908133;29;20514;-80
2022/01/25 12:25:19;;;;;;;80.45;35.00;;;;;;;6.91;84.29;102378.78;4932747;29;20505;-80
2022/01/25 12:27:59;;;;;;;72.55;34.58;;;;;;;6.84;84.81;102385.06;4928849;29;20386;-80
2022/01/25 12:30:40;;;;;;;72.18;33.83;;;;;;;6.88;84.78;102382.75;4927277;29;20047;-80
2022/01/25 12:33:15;;;;;;;72.45;34.50;;;;;;;6.87;84.44;102372.91;4939181;29;20051;-81
2022/01/25 12:35:54;;;;;;;74.00;34.35;;;;;;;6.92;84.40;102373.13;4939130;29;20047;-81
2022/01/25 12:38:46;;;;;;;72.75;33.67;;;;;;;7.00;83.51;102366.63;4888999;29;20047;-81
2022/01/25 12:41:20;;;;;;;76.75;35.55;;;;;;;7.13;83.29;102368.47;4928908;29;20051;-81
2022/01/25 12:43:53;;;;;;;76.65;33.78;;;;;;;7.20;82.82;102349.41;4923047;29;20486;-81
2022/01/25 12:46:31;;;;;;;86.45;37.42;;;;;;;7.35;82.51;102354.59;4917265;29;20498;-81
2022/01/25 12:49:14;;;;;;;91.75;40.08;;;;;;;7.30;82.47;102343.50;4923248;29;20054;-81
2022/01/25 12:51:48;;;;;;;93.43;37.95;;;;;;;7.25;82.79;102339.53;4931698;29;20744;-81
2022/01/25 12:54:16;;;;;;;;;;;;;;;7.26;82.91;102335.78;4932513;29;20055;-81
2022/01/25 12:56:47;;;;;;;90.32;36.20;;;;;;;7.32;83.03;102338.69;4919019;29;19926;-81
2022/01/25 12:59:22;;;;;;;99.43;40.60;;;;;;;7.26;83.51;102329.50;4911457;29;20056;-81
2022/01/25 13:01:54;;;;;;;91.60;38.20;;;;;;;7.19;83.24;102324.06;4934354;28;20059;-81
2022/01/25 13:04:22;;;;;;;88.20;38.58;;;;;;;7.11;83.50;102313.41;4936184;28;20046;-81
2022/01/25 13:06:52;;;;;;;86.20;38.00;;;;;;;7.08;84.82;102311.94;4942186;28;20039;-81
2022/01/25 13:09:35;;;;;;;82.43;37.63;;;;;;;7.16;85.18;102310.88;4926145;28;20482;-81
2022/01/25 13:17:22;;;;;;;89.25;39.10;;;;;;;7.11;85.33;102316.13;4942073;28;20505;-81
2022/01/25 13:20:01;;;;;;;92.85;37.13;;;;;;;7.06;85.45;102308.63;4932233;29;20047;-82
2022/01/25 13:22:38;;;;;;;96.90;39.35;;;;;;;6.85;86.56;102309.72;4930648;28;20064;-81
2022/01/25 13:27:48;;;;;;;101.18;38.95;;;;;;;6.89;86.87;102316.38;4952106;28;20075;-81
2022/01/25 13:33:09;;;;;;;103.07;40.63;;;;;;;6.58;88.90;102307.84;4940969;29;20055;-81
2022/01/25 13:35:41;;;;;;;95.03;38.65;;;;;;;6.53;88.79;102302.19;4932525;28;20070;-81
2022/01/25 13:38:13;;;;;;;90.90;36.40;;;;;;;6.52;88.75;102307.84;4931699;28;20043;-81
2022/01/25 13:46:31;;;;;;;80.82;34.95;;;;;;;6.23;90.05;102307.22;4935837;28;20058;-81